sensor_id;sensor_type;location;lat;lon;timestamp;temperature;humidity
33594;DHT22;19920;52.242;20.940;2023-05-07T00:00:25;7.20;99.90
33594;DHT22;19920;52.242;20.940;2023-05-07T00:02:51;7.20;99.90
33594;DHT22;19920;52.242;20.940;2023-05-07T00:05:17;7.20;99.90
33594;DHT22;19920;52.242;20.940;2023-05-07T00:07:43;7.20;99.90
33594;DHT22;19920;52.242;20.940;2023-05-07T00:10:11;7.20;99.90
33594;DHT22;19920;52.242;20.940;2023-05-07T00:12:38;7.20;99.90
33594;DHT22;19920;52.242;20.940;2023-05-07T00:15:04;7.10;99.90
33594;DHT22;19920;52.242;20.940;2023-05-07T00:17:30;7.20;99.90
33594;DHT22;19920;52.242;20.940;2023-05-07T00:19:55;7.10;99.90
33594;DHT22;19920;52.242;20.940;2023-05-07T00:22:21;7.10;99.90
33594;DHT22;19920;52.242;20.940;2023-05-07T00:24:47;7.10;99.90
33594;DHT22;19920;52.242;20.940;2023-05-07T00:27:12;7.10;99.90
33594;DHT22;19920;52.242;20.940;2023-05-07T00:29:38;7.10;99.90
33594;DHT22;19920;52.242;20.940;2023-05-07T00:32:04;7.20;99.90
33594;DHT22;19920;52.242;20.940;2023-05-07T00:34:30;7.20;99.90
33594;DHT22;19920;52.242;20.940;2023-05-07T00:36:55;7.20;99.90
33594;DHT22;19920;52.242;20.940;2023-05-07T00:39:21;7.20;99.90
33594;DHT22;19920;52.242;20.940;2023-05-07T00:41:47;7.20;99.90
33594;DHT22;19920;52.242;20.940;2023-05-07T00:44:13;7.10;99.90
33594;DHT22;19920;52.242;20.940;2023-05-07T00:46:40;7.00;99.90
33594;DHT22;19920;52.242;20.940;2023-05-07T00:49:06;7.00;99.90
33594;DHT22;19920;52.242;20.940;2023-05-07T00:51:32;7.00;99.90
33594;DHT22;19920;52.242;20.940;2023-05-07T00:54:00;7.00;99.90
33594;DHT22;19920;52.242;20.940;2023-05-07T00:56:26;7.00;99.90
33594;DHT22;19920;52.242;20.940;2023-05-07T00:58:52;7.00;99.90
33594;DHT22;19920;52.242;20.940;2023-05-07T01:01:18;7.10;99.90
33594;DHT22;19920;52.242;20.940;2023-05-07T01:03:43;7.00;99.90
33594;DHT22;19920;52.242;20.940;2023-05-07T01:06:10;7.00;99.90
33594;DHT22;19920;52.242;20.940;2023-05-07T01:08:39;7.00;99.90
33594;DHT22;19920;52.242;20.940;2023-05-07T01:11:09;7.00;99.90
33594;DHT22;19920;52.242;20.940;2023-05-07T01:13:35;7.00;99.90
33594;DHT22;19920;52.242;20.940;2023-05-07T01:16:02;7.00;99.90
33594;DHT22;19920;52.242;20.940;2023-05-07T01:18:28;7.00;99.90
33594;DHT22;19920;52.242;20.940;2023-05-07T01:20:57;7.00;99.90
33594;DHT22;19920;52.242;20.940;2023-05-07T01:23:24;7.00;99.90
33594;DHT22;19920;52.242;20.940;2023-05-07T01:25:54;7.00;99.90
33594;DHT22;19920;52.242;20.940;2023-05-07T01:28:20;6.90;99.90
33594;DHT22;19920;52.242;20.940;2023-05-07T01:30:49;6.90;99.90
33594;DHT22;19920;52.242;20.940;2023-05-07T01:33:19;6.90;99.90
33594;DHT22;19920;52.242;20.940;2023-05-07T01:35:49;6.90;99.90
33594;DHT22;19920;52.242;20.940;2023-05-07T01:38:16;6.90;99.90
33594;DHT22;19920;52.242;20.940;2023-05-07T01:40:43;6.90;99.90
33594;DHT22;19920;52.242;20.940;2023-05-07T01:43:09;7.00;99.90
33594;DHT22;19920;52.242;20.940;2023-05-07T01:45:36;6.90;99.90
33594;DHT22;19920;52.242;20.940;2023-05-07T01:48:06;6.90;99.90
33594;DHT22;19920;52.242;20.940;2023-05-07T01:50:32;6.90;99.90
33594;DHT22;19920;52.242;20.940;2023-05-07T01:52:59;6.90;99.90
33594;DHT22;19920;52.242;20.940;2023-05-07T01:55:25;7.00;99.90
33594;DHT22;19920;52.242;20.940;2023-05-07T01:57:50;6.90;99.90
33594;DHT22;19920;52.242;20.940;2023-05-07T02:00:16;6.90;99.90
33594;DHT22;19920;52.242;20.940;2023-05-07T02:02:42;6.90;99.90
33594;DHT22;19920;52.242;20.940;2023-05-07T02:05:08;6.90;99.90
33594;DHT22;19920;52.242;20.940;2023-05-07T02:07:34;6.80;99.90
33594;DHT22;19920;52.242;20.940;2023-05-07T02:10:00;6.70;99.90
33594;DHT22;19920;52.242;20.940;2023-05-07T02:12:25;6.70;99.90
33594;DHT22;19920;52.242;20.940;2023-05-07T02:14:51;6.70;99.90
33594;DHT22;19920;52.242;20.940;2023-05-07T02:17:17;6.80;99.90
33594;DHT22;19920;52.242;20.940;2023-05-07T02:19:42;6.70;99.90
33594;DHT22;19920;52.242;20.940;2023-05-07T02:22:09;6.70;99.90
33594;DHT22;19920;52.242;20.940;2023-05-07T02:24:35;6.70;99.90
33594;DHT22;19920;52.242;20.940;2023-05-07T02:27:00;6.70;99.90
33594;DHT22;19920;52.242;20.940;2023-05-07T02:29:27;6.70;99.90
33594;DHT22;19920;52.242;20.940;2023-05-07T02:31:52;6.70;99.90
33594;DHT22;19920;52.242;20.940;2023-05-07T02:34:19;6.60;99.90
33594;DHT22;19920;52.242;20.940;2023-05-07T02:36:45;6.60;99.90
33594;DHT22;19920;52.242;20.940;2023-05-07T02:39:13;6.60;99.90
33594;DHT22;19920;52.242;20.940;2023-05-07T02:41:38;6.60;99.90
33594;DHT22;19920;52.242;20.940;2023-05-07T02:44:04;6.60;99.90
33594;DHT22;19920;52.242;20.940;2023-05-07T02:46:30;6.60;99.90
33594;DHT22;19920;52.242;20.940;2023-05-07T02:48:55;6.60;99.90
33594;DHT22;19920;52.242;20.940;2023-05-07T02:51:22;6.70;99.90
33594;DHT22;19920;52.242;20.940;2023-05-07T02:53:48;6.60;99.90
33594;DHT22;19920;52.242;20.940;2023-05-07T02:56:14;6.60;99.90
33594;DHT22;19920;52.242;20.940;2023-05-07T02:58:40;6.60;99.90
33594;DHT22;19920;52.242;20.940;2023-05-07T03:01:06;6.60;99.90
33594;DHT22;19920;52.242;20.940;2023-05-07T03:03:31;6.60;99.90
33594;DHT22;19920;52.242;20.940;2023-05-07T03:05:57;6.60;99.90
33594;DHT22;19920;52.242;20.940;2023-05-07T03:08:23;6.60;99.90
33594;DHT22;19920;52.242;20.940;2023-05-07T03:10:49;6.70;99.90
33594;DHT22;19920;52.242;20.940;2023-05-07T03:13:15;6.60;99.90
33594;DHT22;19920;52.242;20.940;2023-05-07T03:15:40;6.70;99.90
33594;DHT22;19920;52.242;20.940;2023-05-07T03:18:06;6.60;99.90
33594;DHT22;19920;52.242;20.940;2023-05-07T03:20:32;6.70;99.90
33594;DHT22;19920;52.242;20.940;2023-05-07T03:22:57;6.80;99.90
33594;DHT22;19920;52.242;20.940;2023-05-07T03:25:23;6.80;99.90
33594;DHT22;19920;52.242;20.940;2023-05-07T03:27:49;6.80;99.90
33594;DHT22;19920;52.242;20.940;2023-05-07T03:30:14;6.80;99.90
33594;DHT22;19920;52.242;20.940;2023-05-07T03:32:40;6.80;99.90
33594;DHT22;19920;52.242;20.940;2023-05-07T03:35:06;6.80;99.90
33594;DHT22;19920;52.242;20.940;2023-05-07T03:37:32;6.70;99.90
33594;DHT22;19920;52.242;20.940;2023-05-07T03:39:58;6.70;99.90
33594;DHT22;19920;52.242;20.940;2023-05-07T03:42:23;6.70;99.90
33594;DHT22;19920;52.242;20.940;2023-05-07T03:44:49;6.80;99.90
33594;DHT22;19920;52.242;20.940;2023-05-07T03:47:15;6.80;99.90
33594;DHT22;19920;52.242;20.940;2023-05-07T03:49:40;6.90;99.90
33594;DHT22;19920;52.242;20.940;2023-05-07T03:52:06;6.90;99.90
33594;DHT22;19920;52.242;20.940;2023-05-07T03:54:32;6.90;99.90
33594;DHT22;19920;52.242;20.940;2023-05-07T03:56:58;6.90;99.90
33594;DHT22;19920;52.242;20.940;2023-05-07T03:59:23;6.90;99.90
33594;DHT22;19920;52.242;20.940;2023-05-07T04:01:49;6.80;99.90
33594;DHT22;19920;52.242;20.940;2023-05-07T04:04:15;6.90;99.90
33594;DHT22;19920;52.242;20.940;2023-05-07T04:06:41;6.90;99.90
33594;DHT22;19920;52.242;20.940;2023-05-07T04:09:07;6.90;99.90
33594;DHT22;19920;52.242;20.940;2023-05-07T04:11:32;6.90;99.90
33594;DHT22;19920;52.242;20.940;2023-05-07T04:13:58;6.90;99.90
33594;DHT22;19920;52.242;20.940;2023-05-07T04:16:24;6.90;99.90
33594;DHT22;19920;52.242;20.940;2023-05-07T04:18:49;6.80;99.90
33594;DHT22;19920;52.242;20.940;2023-05-07T04:21:16;6.80;99.90
33594;DHT22;19920;52.242;20.940;2023-05-07T04:23:42;6.90;99.90
33594;DHT22;19920;52.242;20.940;2023-05-07T04:26:07;7.00;99.90
33594;DHT22;19920;52.242;20.940;2023-05-07T04:28:34;7.00;99.90
33594;DHT22;19920;52.242;20.940;2023-05-07T04:31:00;6.90;99.90
33594;DHT22;19920;52.242;20.940;2023-05-07T04:33:25;6.90;99.90
33594;DHT22;19920;52.242;20.940;2023-05-07T04:35:51;7.00;99.90
33594;DHT22;19920;52.242;20.940;2023-05-07T04:38:17;7.00;99.90
33594;DHT22;19920;52.242;20.940;2023-05-07T04:40:44;7.00;99.90
33594;DHT22;19920;52.242;20.940;2023-05-07T04:43:09;7.00;99.90
33594;DHT22;19920;52.242;20.940;2023-05-07T04:45:36;7.10;99.90
33594;DHT22;19920;52.242;20.940;2023-05-07T04:48:02;7.00;99.90
33594;DHT22;19920;52.242;20.940;2023-05-07T04:50:27;6.90;99.90
33594;DHT22;19920;52.242;20.940;2023-05-07T04:52:53;6.90;99.90
33594;DHT22;19920;52.242;20.940;2023-05-07T04:55:18;7.00;99.90
33594;DHT22;19920;52.242;20.940;2023-05-07T04:57:44;7.00;99.90
33594;DHT22;19920;52.242;20.940;2023-05-07T05:00:11;7.10;99.90
33594;DHT22;19920;52.242;20.940;2023-05-07T05:02:40;7.10;99.90
33594;DHT22;19920;52.242;20.940;2023-05-07T05:05:06;7.10;99.90
33594;DHT22;19920;52.242;20.940;2023-05-07T05:07:32;7.30;99.90
33594;DHT22;19920;52.242;20.940;2023-05-07T05:09:58;7.30;99.90
33594;DHT22;19920;52.242;20.940;2023-05-07T05:12:24;7.40;99.90
33594;DHT22;19920;52.242;20.940;2023-05-07T05:14:49;7.40;99.90
33594;DHT22;19920;52.242;20.940;2023-05-07T05:17:15;7.50;99.90
33594;DHT22;19920;52.242;20.940;2023-05-07T05:19:40;7.50;99.90
33594;DHT22;19920;52.242;20.940;2023-05-07T05:22:06;7.60;99.90
33594;DHT22;19920;52.242;20.940;2023-05-07T05:24:32;7.70;99.90
33594;DHT22;19920;52.242;20.940;2023-05-07T05:26:57;7.80;99.90
33594;DHT22;19920;52.242;20.940;2023-05-07T05:29:25;7.80;99.90
33594;DHT22;19920;52.242;20.940;2023-05-07T05:31:50;7.80;99.90
33594;DHT22;19920;52.242;20.940;2023-05-07T05:34:16;7.90;99.90
33594;DHT22;19920;52.242;20.940;2023-05-07T05:36:43;7.90;99.90
33594;DHT22;19920;52.242;20.940;2023-05-07T05:39:08;8.00;99.90
33594;DHT22;19920;52.242;20.940;2023-05-07T05:41:34;8.10;99.90
33594;DHT22;19920;52.242;20.940;2023-05-07T05:44:00;8.20;99.90
33594;DHT22;19920;52.242;20.940;2023-05-07T05:46:25;8.20;99.90
33594;DHT22;19920;52.242;20.940;2023-05-07T05:48:51;8.00;99.90
33594;DHT22;19920;52.242;20.940;2023-05-07T05:51:17;8.00;99.90
33594;DHT22;19920;52.242;20.940;2023-05-07T05:53:42;8.10;99.90
33594;DHT22;19920;52.242;20.940;2023-05-07T05:56:08;8.10;99.90
33594;DHT22;19920;52.242;20.940;2023-05-07T05:58:34;8.20;99.90
33594;DHT22;19920;52.242;20.940;2023-05-07T06:00:59;8.30;99.90
33594;DHT22;19920;52.242;20.940;2023-05-07T06:03:27;8.20;99.90
33594;DHT22;19920;52.242;20.940;2023-05-07T06:05:53;8.20;99.90
33594;DHT22;19920;52.242;20.940;2023-05-07T06:08:19;8.30;99.90
33594;DHT22;19920;52.242;20.940;2023-05-07T06:10:45;8.30;99.90
33594;DHT22;19920;52.242;20.940;2023-05-07T06:13:10;8.30;99.90
33594;DHT22;19920;52.242;20.940;2023-05-07T06:15:36;8.30;99.90
33594;DHT22;19920;52.242;20.940;2023-05-07T06:18:02;8.30;99.90
33594;DHT22;19920;52.242;20.940;2023-05-07T06:20:28;8.40;99.90
33594;DHT22;19920;52.242;20.940;2023-05-07T06:22:53;8.40;99.90
33594;DHT22;19920;52.242;20.940;2023-05-07T06:25:19;8.40;99.90
33594;DHT22;19920;52.242;20.940;2023-05-07T06:27:45;8.50;99.90
33594;DHT22;19920;52.242;20.940;2023-05-07T06:30:11;8.70;99.90
33594;DHT22;19920;52.242;20.940;2023-05-07T06:32:37;8.90;99.90
33594;DHT22;19920;52.242;20.940;2023-05-07T06:35:03;8.80;99.90
33594;DHT22;19920;52.242;20.940;2023-05-07T06:37:28;8.70;99.90
33594;DHT22;19920;52.242;20.940;2023-05-07T06:39:54;8.80;99.90
33594;DHT22;19920;52.242;20.940;2023-05-07T06:42:19;8.80;99.90
33594;DHT22;19920;52.242;20.940;2023-05-07T06:44:45;8.80;99.90
33594;DHT22;19920;52.242;20.940;2023-05-07T06:47:11;8.90;99.90
33594;DHT22;19920;52.242;20.940;2023-05-07T06:49:36;8.90;99.90
33594;DHT22;19920;52.242;20.940;2023-05-07T06:52:02;9.00;99.90
33594;DHT22;19920;52.242;20.940;2023-05-07T06:54:28;9.20;99.90
33594;DHT22;19920;52.242;20.940;2023-05-07T06:56:54;9.30;99.90
33594;DHT22;19920;52.242;20.940;2023-05-07T06:59:19;9.30;99.90
33594;DHT22;19920;52.242;20.940;2023-05-07T07:01:45;9.30;99.90
33594;DHT22;19920;52.242;20.940;2023-05-07T07:04:10;9.50;99.90
33594;DHT22;19920;52.242;20.940;2023-05-07T07:06:36;9.70;99.90
33594;DHT22;19920;52.242;20.940;2023-05-07T07:09:02;9.80;99.90
33594;DHT22;19920;52.242;20.940;2023-05-07T07:11:27;9.80;99.90
33594;DHT22;19920;52.242;20.940;2023-05-07T07:13:53;9.90;99.90
33594;DHT22;19920;52.242;20.940;2023-05-07T07:16:20;10.00;99.90
33594;DHT22;19920;52.242;20.940;2023-05-07T07:18:46;10.00;99.90
33594;DHT22;19920;52.242;20.940;2023-05-07T07:21:12;10.10;99.90
33594;DHT22;19920;52.242;20.940;2023-05-07T07:23:37;10.00;99.90
33594;DHT22;19920;52.242;20.940;2023-05-07T07:26:03;10.00;99.90
33594;DHT22;19920;52.242;20.940;2023-05-07T07:28:29;10.00;99.90
33594;DHT22;19920;52.242;20.940;2023-05-07T07:30:54;10.10;99.90
33594;DHT22;19920;52.242;20.940;2023-05-07T07:33:20;10.20;99.90
33594;DHT22;19920;52.242;20.940;2023-05-07T07:35:46;10.30;99.90
33594;DHT22;19920;52.242;20.940;2023-05-07T07:38:11;10.50;99.90
33594;DHT22;19920;52.242;20.940;2023-05-07T07:40:37;10.70;99.90
33594;DHT22;19920;52.242;20.940;2023-05-07T07:43:02;10.80;99.90
33594;DHT22;19920;52.242;20.940;2023-05-07T07:45:28;10.90;99.90
33594;DHT22;19920;52.242;20.940;2023-05-07T07:47:54;10.60;99.90
33594;DHT22;19920;52.242;20.940;2023-05-07T07:50:20;10.50;99.90
33594;DHT22;19920;52.242;20.940;2023-05-07T07:52:46;10.60;99.90
33594;DHT22;19920;52.242;20.940;2023-05-07T07:55:12;10.70;99.90
33594;DHT22;19920;52.242;20.940;2023-05-07T07:57:37;10.70;99.90
33594;DHT22;19920;52.242;20.940;2023-05-07T08:00:03;10.70;99.90
33594;DHT22;19920;52.242;20.940;2023-05-07T08:02:29;10.70;99.90
33594;DHT22;19920;52.242;20.940;2023-05-07T08:04:55;10.70;99.90
33594;DHT22;19920;52.242;20.940;2023-05-07T08:07:21;10.80;99.90
33594;DHT22;19920;52.242;20.940;2023-05-07T08:09:48;10.70;99.90
33594;DHT22;19920;52.242;20.940;2023-05-07T08:12:14;10.60;99.90
33594;DHT22;19920;52.242;20.940;2023-05-07T08:14:40;10.40;99.90
33594;DHT22;19920;52.242;20.940;2023-05-07T08:17:06;10.50;99.90
33594;DHT22;19920;52.242;20.940;2023-05-07T08:19:32;10.50;99.90
33594;DHT22;19920;52.242;20.940;2023-05-07T08:21:57;10.50;99.90
33594;DHT22;19920;52.242;20.940;2023-05-07T08:24:23;10.60;99.90
33594;DHT22;19920;52.242;20.940;2023-05-07T08:26:49;10.80;99.90
33594;DHT22;19920;52.242;20.940;2023-05-07T08:29:15;10.80;99.90
33594;DHT22;19920;52.242;20.940;2023-05-07T08:31:40;10.80;99.90
33594;DHT22;19920;52.242;20.940;2023-05-07T08:34:06;11.20;99.90
33594;DHT22;19920;52.242;20.940;2023-05-07T08:36:32;11.20;99.90
33594;DHT22;19920;52.242;20.940;2023-05-07T08:38:58;11.30;99.90
33594;DHT22;19920;52.242;20.940;2023-05-07T08:41:24;11.40;99.90
33594;DHT22;19920;52.242;20.940;2023-05-07T08:43:50;11.40;99.90
33594;DHT22;19920;52.242;20.940;2023-05-07T08:46:22;11.60;99.90
33594;DHT22;19920;52.242;20.940;2023-05-07T08:48:49;11.70;99.90
33594;DHT22;19920;52.242;20.940;2023-05-07T08:51:20;11.60;99.90
33594;DHT22;19920;52.242;20.940;2023-05-07T08:53:47;11.60;99.90
33594;DHT22;19920;52.242;20.940;2023-05-07T08:56:16;11.40;99.90
33594;DHT22;19920;52.242;20.940;2023-05-07T08:58:43;11.60;99.90
33594;DHT22;19920;52.242;20.940;2023-05-07T09:01:13;11.80;99.90
33594;DHT22;19920;52.242;20.940;2023-05-07T09:03:39;11.80;99.90
33594;DHT22;19920;52.242;20.940;2023-05-07T09:06:05;11.80;99.90
33594;DHT22;19920;52.242;20.940;2023-05-07T09:08:32;12.10;99.90
33594;DHT22;19920;52.242;20.940;2023-05-07T09:10:58;12.30;99.90
33594;DHT22;19920;52.242;20.940;2023-05-07T09:13:24;12.40;99.90
33594;DHT22;19920;52.242;20.940;2023-05-07T09:15:50;12.10;99.90
33594;DHT22;19920;52.242;20.940;2023-05-07T09:18:15;12.10;99.90
33594;DHT22;19920;52.242;20.940;2023-05-07T09:20:41;11.90;99.90
33594;DHT22;19920;52.242;20.940;2023-05-07T09:23:08;11.90;99.90
33594;DHT22;19920;52.242;20.940;2023-05-07T09:25:35;11.80;99.90
33594;DHT22;19920;52.242;20.940;2023-05-07T09:28:03;11.70;99.90
33594;DHT22;19920;52.242;20.940;2023-05-07T09:30:30;11.40;99.90
33594;DHT22;19920;52.242;20.940;2023-05-07T09:32:58;11.30;99.90
33594;DHT22;19920;52.242;20.940;2023-05-07T09:35:25;11.60;99.90
33594;DHT22;19920;52.242;20.940;2023-05-07T09:37:56;11.70;99.90
33594;DHT22;19920;52.242;20.940;2023-05-07T09:40:23;11.60;99.90
33594;DHT22;19920;52.242;20.940;2023-05-07T09:42:49;11.90;99.90
33594;DHT22;19920;52.242;20.940;2023-05-07T09:45:16;12.10;99.90
33594;DHT22;19920;52.242;20.940;2023-05-07T09:47:48;12.40;99.90
33594;DHT22;19920;52.242;20.940;2023-05-07T09:50:15;12.40;99.90
33594;DHT22;19920;52.242;20.940;2023-05-07T09:52:42;12.50;99.90
33594;DHT22;19920;52.242;20.940;2023-05-07T09:55:09;12.50;99.90
33594;DHT22;19920;52.242;20.940;2023-05-07T09:57:36;12.60;99.90
33594;DHT22;19920;52.242;20.940;2023-05-07T10:00:03;12.60;99.90
33594;DHT22;19920;52.242;20.940;2023-05-07T10:02:35;12.90;99.90
33594;DHT22;19920;52.242;20.940;2023-05-07T10:05:01;13.20;99.90
33594;DHT22;19920;52.242;20.940;2023-05-07T10:07:27;13.00;99.90
33594;DHT22;19920;52.242;20.940;2023-05-07T10:09:54;13.00;99.90
33594;DHT22;19920;52.242;20.940;2023-05-07T10:12:20;13.10;99.90
33594;DHT22;19920;52.242;20.940;2023-05-07T10:14:46;13.20;99.90
33594;DHT22;19920;52.242;20.940;2023-05-07T10:17:13;12.90;99.90
33594;DHT22;19920;52.242;20.940;2023-05-07T10:19:44;12.90;99.90
33594;DHT22;19920;52.242;20.940;2023-05-07T10:22:10;12.90;99.90
33594;DHT22;19920;52.242;20.940;2023-05-07T10:24:36;12.80;99.90
33594;DHT22;19920;52.242;20.940;2023-05-07T10:27:07;13.00;99.90
33594;DHT22;19920;52.242;20.940;2023-05-07T10:34:44;13.20;99.90
33594;DHT22;19920;52.242;20.940;2023-05-07T10:37:10;13.40;99.90
33594;DHT22;19920;52.242;20.940;2023-05-07T10:39:37;13.50;99.90
33594;DHT22;19920;52.242;20.940;2023-05-07T10:42:14;13.50;99.90
33594;DHT22;19920;52.242;20.940;2023-05-07T10:44:40;13.60;99.90
33594;DHT22;19920;52.242;20.940;2023-05-07T10:47:12;13.70;99.90
33594;DHT22;19920;52.242;20.940;2023-05-07T10:52:17;13.30;99.90
33594;DHT22;19920;52.242;20.940;2023-05-07T10:54:43;12.90;99.90
33594;DHT22;19920;52.242;20.940;2023-05-07T10:59:57;13.00;99.90
33594;DHT22;19920;52.242;20.940;2023-05-07T11:02:23;13.10;99.90
33594;DHT22;19920;52.242;20.940;2023-05-07T11:05:19;13.30;99.90
33594;DHT22;19920;52.242;20.940;2023-05-07T11:07:54;13.40;99.90
33594;DHT22;19920;52.242;20.940;2023-05-07T11:10:20;13.30;99.90
33594;DHT22;19920;52.242;20.940;2023-05-07T11:12:48;13.40;99.90
33594;DHT22;19920;52.242;20.940;2023-05-07T11:15:14;13.30;99.90
33594;DHT22;19920;52.242;20.940;2023-05-07T11:17:58;13.40;99.90
33594;DHT22;19920;52.242;20.940;2023-05-07T11:26:09;13.20;99.90
33594;DHT22;19920;52.242;20.940;2023-05-07T11:28:40;13.20;99.90
33594;DHT22;19920;52.242;20.940;2023-05-07T11:31:06;13.20;99.90
33594;DHT22;19920;52.242;20.940;2023-05-07T11:33:33;13.30;99.90
33594;DHT22;19920;52.242;20.940;2023-05-07T11:36:00;13.40;99.90
33594;DHT22;19920;52.242;20.940;2023-05-07T11:38:26;13.50;99.90
33594;DHT22;19920;52.242;20.940;2023-05-07T11:40:53;13.60;99.90
33594;DHT22;19920;52.242;20.940;2023-05-07T11:43:19;13.90;99.90
33594;DHT22;19920;52.242;20.940;2023-05-07T11:45:45;14.00;99.90
33594;DHT22;19920;52.242;20.940;2023-05-07T11:48:12;13.90;99.90
33594;DHT22;19920;52.242;20.940;2023-05-07T11:50:52;13.70;99.90
33594;DHT22;19920;52.242;20.940;2023-05-07T11:53:18;13.60;99.90
33594;DHT22;19920;52.242;20.940;2023-05-07T11:55:46;13.60;99.90
33594;DHT22;19920;52.242;20.940;2023-05-07T11:58:15;13.50;99.90
33594;DHT22;19920;52.242;20.940;2023-05-07T12:00:53;13.70;99.90
33594;DHT22;19920;52.242;20.940;2023-05-07T12:03:19;13.90;99.90
33594;DHT22;19920;52.242;20.940;2023-05-07T12:05:46;14.10;99.90
33594;DHT22;19920;52.242;20.940;2023-05-07T12:08:21;14.50;99.90
33594;DHT22;19920;52.242;20.940;2023-05-07T12:10:49;14.60;99.90
33594;DHT22;19920;52.242;20.940;2023-05-07T12:13:15;14.70;99.90
33594;DHT22;19920;52.242;20.940;2023-05-07T12:15:42;14.80;99.90
33594;DHT22;19920;52.242;20.940;2023-05-07T12:18:08;14.60;99.90
33594;DHT22;19920;52.242;20.940;2023-05-07T12:20:35;14.40;99.90
33594;DHT22;19920;52.242;20.940;2023-05-07T12:23:02;14.70;99.90
33594;DHT22;19920;52.242;20.940;2023-05-07T12:25:46;15.00;99.90
33594;DHT22;19920;52.242;20.940;2023-05-07T12:28:18;14.70;99.90
33594;DHT22;19920;52.242;20.940;2023-05-07T12:30:46;14.80;99.90
33594;DHT22;19920;52.242;20.940;2023-05-07T12:33:12;14.60;99.90
33594;DHT22;19920;52.242;20.940;2023-05-07T12:35:43;14.70;99.90
33594;DHT22;19920;52.242;20.940;2023-05-07T12:38:11;14.70;99.90
33594;DHT22;19920;52.242;20.940;2023-05-07T12:40:40;14.70;99.90
33594;DHT22;19920;52.242;20.940;2023-05-07T12:43:06;14.80;99.90
33594;DHT22;19920;52.242;20.940;2023-05-07T12:45:37;14.70;99.90
33594;DHT22;19920;52.242;20.940;2023-05-07T12:48:04;14.60;99.90
33594;DHT22;19920;52.242;20.940;2023-05-07T12:50:33;14.70;99.90
33594;DHT22;19920;52.242;20.940;2023-05-07T12:52:59;14.80;99.90
33594;DHT22;19920;52.242;20.940;2023-05-07T12:55:25;14.90;99.90
33594;DHT22;19920;52.242;20.940;2023-05-07T12:57:52;14.90;99.90
33594;DHT22;19920;52.242;20.940;2023-05-07T13:00:33;14.90;99.90
33594;DHT22;19920;52.242;20.940;2023-05-07T13:02:59;15.00;99.90
33594;DHT22;19920;52.242;20.940;2023-05-07T13:05:24;15.00;99.90
33594;DHT22;19920;52.242;20.940;2023-05-07T13:07:56;14.80;99.90
33594;DHT22;19920;52.242;20.940;2023-05-07T13:10:22;14.60;99.90
33594;DHT22;19920;52.242;20.940;2023-05-07T13:12:49;14.60;99.90
33594;DHT22;19920;52.242;20.940;2023-05-07T13:15:14;14.60;99.90
33594;DHT22;19920;52.242;20.940;2023-05-07T13:17:40;14.80;99.90
33594;DHT22;19920;52.242;20.940;2023-05-07T13:20:06;14.80;99.90
33594;DHT22;19920;52.242;20.940;2023-05-07T13:22:33;14.90;99.90
33594;DHT22;19920;52.242;20.940;2023-05-07T13:24:59;14.80;99.90
33594;DHT22;19920;52.242;20.940;2023-05-07T13:27:24;14.70;99.90
33594;DHT22;19920;52.242;20.940;2023-05-07T13:29:51;14.70;99.90
33594;DHT22;19920;52.242;20.940;2023-05-07T13:32:17;14.50;99.90
33594;DHT22;19920;52.242;20.940;2023-05-07T13:34:42;14.50;99.90
33594;DHT22;19920;52.242;20.940;2023-05-07T13:37:08;14.60;99.90
33594;DHT22;19920;52.242;20.940;2023-05-07T13:39:34;15.00;99.90
33594;DHT22;19920;52.242;20.940;2023-05-07T13:41:59;15.30;99.90
33594;DHT22;19920;52.242;20.940;2023-05-07T13:44:25;15.50;99.90
33594;DHT22;19920;52.242;20.940;2023-05-07T13:46:51;15.80;99.90
33594;DHT22;19920;52.242;20.940;2023-05-07T13:49:17;15.50;99.90
33594;DHT22;19920;52.242;20.940;2023-05-07T13:51:42;15.20;99.90
33594;DHT22;19920;52.242;20.940;2023-05-07T13:54:08;15.20;99.90
33594;DHT22;19920;52.242;20.940;2023-05-07T13:56:34;15.60;99.90
33594;DHT22;19920;52.242;20.940;2023-05-07T13:58:59;16.10;99.90
33594;DHT22;19920;52.242;20.940;2023-05-07T14:01:25;16.40;99.90
33594;DHT22;19920;52.242;20.940;2023-05-07T14:03:51;16.10;99.90
33594;DHT22;19920;52.242;20.940;2023-05-07T14:06:16;15.70;99.90
33594;DHT22;19920;52.242;20.940;2023-05-07T14:08:42;15.90;99.90
33594;DHT22;19920;52.242;20.940;2023-05-07T14:11:07;15.50;99.90
33594;DHT22;19920;52.242;20.940;2023-05-07T14:13:33;15.80;99.90
33594;DHT22;19920;52.242;20.940;2023-05-07T14:15:59;16.30;99.90
33594;DHT22;19920;52.242;20.940;2023-05-07T14:18:26;16.50;99.90
33594;DHT22;19920;52.242;20.940;2023-05-07T14:20:52;17.20;99.90
33594;DHT22;19920;52.242;20.940;2023-05-07T14:23:17;17.80;99.90
33594;DHT22;19920;52.242;20.940;2023-05-07T14:25:45;18.00;99.90
33594;DHT22;19920;52.242;20.940;2023-05-07T14:28:13;17.50;99.90
33594;DHT22;19920;52.242;20.940;2023-05-07T14:30:38;17.50;99.90
33594;DHT22;19920;52.242;20.940;2023-05-07T14:33:04;17.70;99.90
33594;DHT22;19920;52.242;20.940;2023-05-07T14:35:30;17.20;99.90
33594;DHT22;19920;52.242;20.940;2023-05-07T14:37:55;16.60;99.90
33594;DHT22;19920;52.242;20.940;2023-05-07T14:40:21;16.40;99.90
33594;DHT22;19920;52.242;20.940;2023-05-07T14:42:47;17.70;99.90
33594;DHT22;19920;52.242;20.940;2023-05-07T14:45:12;18.70;99.90
33594;DHT22;19920;52.242;20.940;2023-05-07T14:47:38;19.60;99.90
33594;DHT22;19920;52.242;20.940;2023-05-07T14:50:04;21.20;99.90
33594;DHT22;19920;52.242;20.940;2023-05-07T14:52:30;22.50;99.90
33594;DHT22;19920;52.242;20.940;2023-05-07T14:54:55;23.40;99.90
33594;DHT22;19920;52.242;20.940;2023-05-07T14:57:21;24.10;99.90
33594;DHT22;19920;52.242;20.940;2023-05-07T14:59:47;24.10;99.90
33594;DHT22;19920;52.242;20.940;2023-05-07T15:02:13;24.50;99.00
33594;DHT22;19920;52.242;20.940;2023-05-07T15:04:39;24.00;98.80
33594;DHT22;19920;52.242;20.940;2023-05-07T15:07:14;23.90;97.90
33594;DHT22;19920;52.242;20.940;2023-05-07T15:09:44;24.70;95.60
33594;DHT22;19920;52.242;20.940;2023-05-07T15:12:10;25.10;95.40
33594;DHT22;19920;52.242;20.940;2023-05-07T15:14:39;25.30;93.50
33594;DHT22;19920;52.242;20.940;2023-05-07T15:17:05;25.40;93.60
33594;DHT22;19920;52.242;20.940;2023-05-07T15:19:31;25.70;91.60
33594;DHT22;19920;52.242;20.940;2023-05-07T15:21:57;25.50;90.80
33594;DHT22;19920;52.242;20.940;2023-05-07T15:24:23;26.00;91.10
33594;DHT22;19920;52.242;20.940;2023-05-07T15:26:51;24.50;89.80
33594;DHT22;19920;52.242;20.940;2023-05-07T15:29:17;23.20;91.50
33594;DHT22;19920;52.242;20.940;2023-05-07T15:31:42;22.70;91.00
33594;DHT22;19920;52.242;20.940;2023-05-07T15:34:08;23.20;91.20